createdAt,value
2019-05-16T00:00:40.112Z,38.80
2019-05-16T00:03:28.046Z,38.90
2019-05-16T00:06:17.910Z,38.80
2019-05-16T00:09:08.023Z,38.80
2019-05-16T00:11:38.410Z,39.00
2019-05-16T00:14:28.131Z,39.00
2019-05-16T00:16:58.874Z,39.00
2019-05-16T00:19:28.802Z,39.00
2019-05-16T00:22:18.235Z,39.10
2019-05-16T00:25:08.635Z,39.10
2019-05-16T00:27:58.428Z,39.20
2019-05-16T00:30:28.866Z,39.20
2019-05-16T00:33:18.355Z,39.20
2019-05-16T00:35:48.151Z,39.20
2019-05-16T00:38:37.966Z,39.30
2019-05-16T00:41:28.195Z,39.30
2019-05-16T00:44:18.803Z,39.10
2019-05-16T00:46:48.605Z,39.20
2019-05-16T00:49:18.697Z,39.40
2019-05-16T00:51:48.116Z,39.40
2019-05-16T00:54:18.711Z,39.40
2019-05-16T00:56:48.702Z,39.40
2019-05-16T00:59:18.455Z,39.40
2019-05-16T01:01:50.154Z,39.50
2019-05-16T01:04:18.326Z,39.40
2019-05-16T01:07:08.236Z,39.40
2019-05-16T01:09:38.582Z,39.50
2019-05-16T01:12:08.442Z,39.60
2019-05-16T01:14:38.436Z,39.60
2019-05-16T01:17:08.613Z,39.60
2019-05-16T01:19:38.399Z,39.70
2019-05-16T01:22:28.851Z,39.80
2019-05-16T01:24:58.480Z,39.60
2019-05-16T01:27:47.722Z,39.70
2019-05-16T01:30:18.653Z,39.70
2019-05-16T01:33:08.661Z,39.90
2019-05-16T01:35:38.531Z,39.80
2019-05-16T01:38:28.340Z,40.10
2019-05-16T01:40:58.281Z,39.90
2019-05-16T01:43:28.373Z,39.90
2019-05-16T01:46:18.176Z,39.90
2019-05-16T01:48:48.461Z,39.80
2019-05-16T01:51:18.421Z,40.00
2019-05-16T01:53:48.978Z,40.10
2019-05-16T01:56:38.916Z,40.00
2019-05-16T01:59:09.329Z,40.00
2019-05-16T02:01:38.215Z,40.00
2019-05-16T02:04:11.890Z,40.10
2019-05-16T02:06:50.753Z,40.10
2019-05-16T02:09:28.087Z,40.10
2019-05-16T02:11:58.878Z,40.10
2019-05-16T02:14:48.101Z,40.20
2019-05-16T02:17:18.327Z,40.20
2019-05-16T02:20:08.800Z,40.20
2019-05-16T02:22:38.963Z,40.60
2019-05-16T02:25:08.107Z,40.40
2019-05-16T02:27:56.152Z,40.30
2019-05-16T02:30:25.127Z,40.30
2019-05-16T02:32:54.073Z,40.50
2019-05-16T02:35:42.665Z,40.50
2019-05-16T02:38:11.546Z,40.40
2019-05-16T02:41:03.239Z,40.50
2019-05-16T02:43:51.476Z,40.00
2019-05-16T02:46:41.841Z,40.50
2019-05-16T02:49:30.653Z,40.40
2019-05-16T02:52:21.697Z,40.40
2019-05-16T02:55:11.721Z,40.40
2019-05-16T02:57:41.428Z,40.40
2019-05-16T03:00:33.351Z,40.60
2019-05-16T03:03:02.509Z,40.60
2019-05-16T03:05:31.751Z,40.60
2019-05-16T03:08:01.310Z,40.70
2019-05-16T03:10:42.744Z,40.70
2019-05-16T03:13:11.748Z,40.70
2019-05-16T03:15:40.871Z,40.70
2019-05-16T03:18:11.604Z,40.80
2019-05-16T03:21:00.601Z,40.80
2019-05-16T03:23:30.915Z,40.80
2019-05-16T03:28:51.570Z,40.90
2019-05-16T03:31:24.527Z,41.00
2019-05-16T03:34:14.903Z,40.90
2019-05-16T03:36:43.858Z,41.00
2019-05-16T03:39:10.878Z,41.00
2019-05-16T03:42:01.051Z,41.10
2019-05-16T03:44:31.726Z,41.10
2019-05-16T03:47:21.902Z,41.20
2019-05-16T03:50:11.165Z,41.10
2019-05-16T03:52:43.308Z,41.30
2019-05-16T03:55:11.096Z,41.20
2019-05-16T03:57:41.653Z,41.20
2019-05-16T04:00:52.082Z,41.20
2019-05-16T04:03:21.320Z,41.90
2019-05-16T04:05:52.490Z,41.30
2019-05-16T04:08:24.582Z,41.40
2019-05-16T04:11:02.800Z,41.30
2019-05-16T04:13:32.018Z,41.30
2019-05-16T04:16:01.522Z,41.40
2019-05-16T04:18:31.902Z,41.50
2019-05-16T04:21:21.769Z,41.50
2019-05-16T04:23:51.419Z,41.40
2019-05-16T04:26:41.166Z,41.50
2019-05-16T04:29:11.961Z,41.50
2019-05-16T04:31:41.682Z,41.60
2019-05-16T04:34:12.314Z,41.70
2019-05-16T04:36:41.400Z,41.40
2019-05-16T04:39:31.932Z,41.40
2019-05-16T04:42:22.187Z,41.40
2019-05-16T04:44:51.720Z,41.20
2019-05-16T04:47:22.025Z,41.40
2019-05-16T04:49:51.850Z,41.40
2019-05-16T04:52:21.942Z,41.20
2019-05-16T04:55:11.728Z,41.20
2019-05-16T04:57:42.120Z,41.20
2019-05-16T05:00:11.701Z,41.20
2019-05-16T05:02:41.879Z,41.20
2019-05-16T05:05:33.437Z,41.20
2019-05-16T05:08:32.296Z,41.10
2019-05-16T05:11:22.208Z,41.20
2019-05-16T05:13:50.950Z,41.00
2019-05-16T05:16:20.536Z,41.00
2019-05-16T05:18:51.429Z,41.10
2019-05-16T05:21:21.010Z,41.10
2019-05-16T05:23:50.881Z,41.10
2019-05-16T05:26:41.336Z,41.00
2019-05-16T05:29:30.718Z,41.00
2019-05-16T05:32:04.309Z,40.90
2019-05-16T05:34:50.426Z,41.00
2019-05-16T05:37:20.586Z,41.00
2019-05-16T05:39:50.414Z,41.20
2019-05-16T05:42:21.999Z,41.10
2019-05-16T05:44:51.362Z,41.00
2019-05-16T05:47:20.672Z,41.10
2019-05-16T05:49:50.035Z,41.80
2019-05-16T05:52:40.842Z,41.10
2019-05-16T05:55:31.127Z,41.00
2019-05-16T05:58:00.909Z,41.00
2019-05-16T06:00:51.581Z,41.00
2019-05-16T06:03:22.410Z,41.00
2019-05-16T06:05:50.490Z,41.20
2019-05-16T06:08:20.291Z,41.00
2019-05-16T06:10:50.487Z,40.90
2019-05-16T06:13:20.557Z,41.00
2019-05-16T06:16:10.797Z,41.00
2019-05-16T06:18:40.346Z,40.90
2019-05-16T06:21:33.023Z,40.90
2019-05-16T06:23:59.926Z,40.90
2019-05-16T06:26:30.344Z,40.90
2019-05-16T06:29:00.698Z,40.70
2019-05-16T06:31:31.321Z,40.30
2019-05-16T06:34:07.382Z,40.20
2019-05-16T06:36:30.531Z,40.10
2019-05-16T06:39:00.282Z,40.20
2019-05-16T06:41:30.433Z,40.20
2019-05-16T06:43:59.931Z,40.20
2019-05-16T06:46:30.663Z,40.20
2019-05-16T06:49:19.734Z,40.20
2019-05-16T06:51:51.353Z,40.30
2019-05-16T06:54:56.295Z,40.30
2019-05-16T06:57:44.287Z,40.30
2019-05-16T07:00:32.256Z,40.20
2019-05-16T07:03:20.816Z,40.00
2019-05-16T07:06:26.241Z,40.10
2019-05-16T07:09:01.047Z,40.00
2019-05-16T07:11:42.426Z,40.20
2019-05-16T07:14:23.419Z,40.00
2019-05-16T07:17:04.640Z,40.20
2019-05-16T07:19:45.556Z,40.20
2019-05-16T07:22:26.821Z,40.20
2019-05-16T07:25:10.439Z,40.20
2019-05-16T07:27:51.154Z,40.10
2019-05-16T07:30:32.683Z,40.00
2019-05-16T07:33:13.078Z,39.80
2019-05-16T07:35:54.212Z,39.70
2019-05-16T07:38:35.030Z,40.00
2019-05-16T07:41:16.246Z,40.10
2019-05-16T07:43:56.984Z,40.30
2019-05-16T07:46:40.825Z,40.30
2019-05-16T07:49:20.422Z,40.40
2019-05-16T07:52:01.140Z,40.60
2019-05-16T07:54:42.027Z,40.70
2019-05-16T07:57:23.248Z,40.80
2019-05-16T08:00:04.026Z,40.80
2019-05-16T08:02:45.195Z,40.80
2019-05-16T08:05:25.581Z,40.60
2019-05-16T08:08:06.510Z,40.60
2019-05-16T08:10:41.680Z,40.50
2019-05-16T08:13:05.862Z,40.50
2019-05-16T08:15:34.862Z,40.40
2019-05-16T08:18:23.132Z,40.30
2019-05-16T08:20:52.795Z,40.10
2019-05-16T08:23:22.687Z,40.00
2019-05-16T08:25:52.884Z,40.00
2019-05-16T08:28:22.094Z,40.20
2019-05-16T08:33:41.810Z,40.10
2019-05-16T08:36:31.322Z,40.00
2019-05-16T08:44:21.640Z,39.30
2019-05-16T08:49:22.411Z,39.00
2019-05-16T08:50:05.380Z,40.00
2019-05-16T08:50:09.882Z,39.60
2019-05-16T08:50:12.082Z,40.20
2019-05-16T08:51:53.038Z,39.20
2019-05-16T08:54:43.883Z,39.30
2019-05-16T08:57:33.908Z,39.20
2019-05-16T09:00:01.928Z,39.20
2019-05-16T09:02:52.543Z,39.30
2019-05-16T09:05:22.735Z,39.20
2019-05-16T09:08:11.083Z,39.30
2019-05-16T09:10:21.223Z,39.10
2019-05-16T09:11:01.640Z,39.40
2019-05-16T09:13:22.591Z,39.80
2019-05-16T09:15:51.868Z,40.00
2019-05-16T09:18:44.680Z,40.20
2019-05-16T09:21:11.077Z,40.30
2019-05-16T09:23:59.077Z,40.70
2019-05-16T09:26:47.561Z,41.00
2019-05-16T09:29:36.708Z,41.10
2019-05-16T09:32:12.615Z,41.20
2019-05-16T09:34:57.525Z,41.40
2019-05-16T09:37:27.139Z,41.40
2019-05-16T09:40:17.217Z,41.20
2019-05-16T09:42:47.352Z,40.90
2019-05-16T09:45:17.084Z,40.60
2019-05-16T09:48:08.087Z,40.50
2019-05-16T09:50:37.940Z,40.70
2019-05-16T09:53:07.231Z,41.20
2019-05-16T09:55:57.441Z,40.40
2019-05-16T09:58:27.868Z,40.10
2019-05-16T10:01:17.351Z,40.00
2019-05-16T10:03:47.726Z,39.70
2019-05-16T10:06:19.104Z,39.10
2019-05-16T10:08:46.678Z,38.80
2019-05-16T10:11:18.126Z,39.00
2019-05-16T10:13:47.075Z,39.00
2019-05-16T10:16:16.723Z,38.60
2019-05-16T10:19:07.476Z,38.20
2019-05-16T10:21:59.935Z,38.10
2019-05-16T10:24:46.821Z,37.80
2019-05-16T10:27:17.189Z,37.30
2019-05-16T10:30:08.438Z,37.30
2019-05-16T10:32:57.408Z,37.30
2019-05-16T10:35:29.328Z,37.70
2019-05-16T10:37:57.589Z,38.10
2019-05-16T10:40:47.529Z,38.60
2019-05-16T10:43:17.288Z,38.70
2019-05-16T10:45:46.497Z,39.00
2019-05-16T10:48:17.324Z,39.20
2019-05-16T10:51:04.972Z,39.30
2019-05-16T10:54:00.428Z,39.30
2019-05-16T10:56:04.787Z,39.20
2019-05-16T10:59:26.065Z,39.10
2019-05-16T11:01:27.802Z,39.00
2019-05-16T11:03:56.638Z,38.90
2019-05-16T11:06:28.845Z,38.70
2019-05-16T11:09:17.203Z,38.70
2019-05-16T11:11:47.606Z,38.80
2019-05-16T11:14:17.263Z,39.10
2019-05-16T11:17:11.739Z,39.20
2019-05-16T11:19:37.420Z,39.40
2019-05-16T11:22:06.320Z,39.40
2019-05-16T11:24:37.566Z,39.40
2019-05-16T11:27:07.477Z,39.50
2019-05-16T11:29:36.615Z,39.50
2019-05-16T11:32:07.095Z,39.60
2019-05-16T11:34:37.382Z,39.80
2019-05-16T11:37:27.744Z,39.80
2019-05-16T11:40:17.934Z,39.80
2019-05-16T11:43:03.806Z,39.50
2019-05-16T11:45:37.316Z,39.60
2019-05-16T11:48:05.995Z,39.50
2019-05-16T11:50:37.323Z,39.30
2019-05-16T11:53:07.300Z,39.20
2019-05-16T11:55:50.637Z,38.90
2019-05-16T11:58:06.768Z,38.40
2019-05-16T12:00:57.401Z,38.20
2019-05-16T12:03:46.819Z,38.30
2019-05-16T12:06:17.051Z,38.60
2019-05-16T12:09:06.723Z,38.90
2019-05-16T12:11:47.804Z,39.30
2019-05-16T12:14:16.780Z,39.50
2019-05-16T12:17:07.255Z,39.80
2019-05-16T12:19:57.516Z,39.80
2019-05-16T12:22:44.489Z,40.00
2019-05-16T12:25:13.160Z,40.10
2019-05-16T12:27:42.602Z,40.20
2019-05-16T12:30:13.670Z,40.30
2019-05-16T12:32:46.867Z,40.40
2019-05-16T12:35:36.676Z,40.70
2019-05-16T12:38:07.802Z,40.70
2019-05-16T12:40:37.686Z,40.80
2019-05-16T12:46:13.791Z,40.50
2019-05-16T12:48:42.485Z,40.50
2019-05-16T12:51:11.723Z,40.40
2019-05-16T12:54:03.085Z,40.40
2019-05-16T12:56:37.238Z,40.20
2019-05-16T12:59:05.023Z,40.30
2019-05-16T13:01:34.643Z,40.20
2019-05-16T13:04:27.670Z,39.90
2019-05-16T13:07:14.367Z,39.40
2019-05-16T13:10:06.204Z,38.80
2019-05-16T13:12:46.707Z,38.50
2019-05-16T13:15:28.124Z,38.30
2019-05-16T13:18:09.388Z,38.20
2019-05-16T13:20:50.651Z,38.40
2019-05-16T13:23:31.839Z,38.50
2019-05-16T13:26:12.616Z,38.50
2019-05-16T13:28:53.416Z,38.50
2019-05-16T13:31:37.777Z,38.70
2019-05-16T13:34:18.044Z,38.80
2019-05-16T13:36:59.302Z,39.30
2019-05-16T13:39:40.473Z,39.40
2019-05-16T13:42:21.313Z,39.50
2019-05-16T13:45:02.707Z,39.50
2019-05-16T13:47:43.356Z,39.60
2019-05-16T13:50:24.005Z,39.70
2019-05-16T13:53:07.876Z,39.80
2019-05-16T13:55:48.325Z,39.80
2019-05-16T13:58:29.492Z,39.90
2019-05-16T14:01:10.211Z,40.00
2019-05-16T14:03:51.200Z,40.10
2019-05-16T14:06:32.567Z,40.30
2019-05-16T14:09:14.061Z,40.30
2019-05-16T14:11:56.374Z,40.20
2019-05-16T14:14:42.105Z,40.50
2019-05-16T14:17:20.025Z,40.80
2019-05-16T14:19:48.709Z,40.60
2019-05-16T14:22:36.743Z,40.60
2019-05-16T14:25:07.077Z,40.40
2019-05-16T14:27:38.094Z,40.90
2019-05-16T14:30:07.610Z,40.20
2019-05-16T14:32:40.955Z,39.80
2019-05-16T14:35:08.522Z,39.40
2019-05-16T14:37:38.015Z,39.10
2019-05-16T14:40:07.887Z,39.10
2019-05-16T14:42:38.526Z,39.10
2019-05-16T14:45:27.247Z,39.20
2019-05-16T14:48:18.182Z,39.20
2019-05-16T14:50:46.974Z,39.40
2019-05-16T14:53:17.892Z,39.40
2019-05-16T14:56:06.980Z,39.50
2019-05-16T14:58:57.710Z,39.60
2019-05-16T15:01:26.728Z,39.90
2019-05-16T15:03:56.577Z,39.90
2019-05-16T15:06:46.885Z,39.90
2019-05-16T15:09:17.150Z,39.80
2019-05-16T15:11:46.262Z,39.80
2019-05-16T15:14:17.245Z,39.70
2019-05-16T15:16:48.612Z,39.90
2019-05-16T15:19:17.492Z,40.10
2019-05-16T15:21:47.583Z,40.20
2019-05-16T15:24:17.883Z,40.40
2019-05-16T15:27:08.155Z,40.50
2019-05-16T15:29:37.747Z,40.50
2019-05-16T15:32:07.097Z,40.40
2019-05-16T15:34:57.156Z,40.30
2019-05-16T15:37:47.956Z,40.40
2019-05-16T15:40:17.743Z,40.20
2019-05-16T15:42:46.681Z,39.90
2019-05-16T15:45:17.643Z,39.70
2019-05-16T15:48:08.297Z,39.30
2019-05-16T15:50:59.475Z,39.10
2019-05-16T15:53:26.793Z,38.90
2019-05-16T15:55:57.560Z,38.80
2019-05-16T15:58:26.719Z,38.60
2019-05-16T16:01:14.947Z,38.50
2019-05-16T16:03:44.200Z,38.70
2019-05-16T16:06:12.869Z,39.00
2019-05-16T16:08:41.660Z,39.20
2019-05-16T16:11:22.715Z,39.30
2019-05-16T16:13:51.441Z,39.50
2019-05-16T16:16:20.169Z,39.50
2019-05-16T16:19:08.178Z,39.80
2019-05-16T16:21:37.949Z,39.60
2019-05-16T16:24:27.920Z,39.70
2019-05-16T16:26:57.012Z,39.40
2019-05-16T16:29:33.130Z,39.40
2019-05-16T16:32:01.165Z,39.30
2019-05-16T16:34:30.361Z,39.50
2019-05-16T16:37:00.080Z,39.60
2019-05-16T16:39:29.807Z,39.70
2019-05-16T16:41:59.557Z,39.80
2019-05-16T16:44:28.588Z,39.90
2019-05-16T16:46:57.540Z,39.90
2019-05-16T16:49:27.967Z,40.00
2019-05-16T16:51:57.822Z,40.10
2019-05-16T16:54:27.640Z,40.40
2019-05-16T16:56:57.196Z,40.50
2019-05-16T16:59:28.043Z,40.70
2019-05-16T17:01:57.606Z,40.80
2019-05-16T17:04:26.833Z,40.90
2019-05-16T17:06:56.902Z,40.90
2019-05-16T17:09:58.434Z,40.90
2019-05-16T17:12:28.296Z,41.00
2019-05-16T17:15:09.783Z,41.10
2019-05-16T17:17:38.840Z,41.30
2019-05-16T17:20:27.192Z,41.20
2019-05-16T17:22:57.241Z,41.20
2019-05-16T17:28:37.113Z,41.30
2019-05-16T17:34:08.513Z,41.30
2019-05-16T17:39:32.406Z,41.40
2019-05-16T17:42:20.699Z,41.30
2019-05-16T17:48:02.615Z,41.20
2019-05-16T17:50:50.894Z,41.20
2019-05-16T17:53:39.232Z,41.20
2019-05-16T17:56:27.751Z,41.40
2019-05-16T17:59:17.053Z,41.40
2019-05-16T18:04:59.788Z,41.50
2019-05-16T18:07:48.540Z,41.60
2019-05-16T18:10:29.527Z,41.60
2019-05-16T18:13:10.795Z,41.60
2019-05-16T18:15:52.191Z,41.60
2019-05-16T18:18:33.167Z,41.60
2019-05-16T18:21:14.160Z,41.70
2019-05-16T18:23:55.070Z,41.70
2019-05-16T18:26:37.358Z,41.70
2019-05-16T18:29:17.937Z,41.80
2019-05-16T18:31:59.077Z,41.80
2019-05-16T18:34:40.571Z,41.80
2019-05-16T18:37:21.011Z,41.80
2019-05-16T18:40:01.800Z,41.80
2019-05-16T18:42:42.445Z,41.80
2019-05-16T18:45:23.336Z,41.80
2019-05-16T18:48:03.689Z,41.80
2019-05-16T18:50:44.775Z,41.90
2019-05-16T18:53:26.966Z,42.00
2019-05-16T18:56:08.074Z,42.00
2019-05-16T18:58:50.027Z,42.00
2019-05-16T19:01:31.343Z,42.20
2019-05-16T19:04:13.421Z,42.30
2019-05-16T19:06:56.605Z,42.20
2019-05-16T19:09:37.438Z,42.30
2019-05-16T19:12:19.227Z,42.30
2019-05-16T19:15:00.337Z,42.30
2019-05-16T19:17:40.968Z,42.30
2019-05-16T19:20:21.696Z,42.40
2019-05-16T19:23:02.688Z,42.20
2019-05-16T19:25:44.176Z,42.40
2019-05-16T19:28:28.337Z,42.40
2019-05-16T19:31:07.660Z,42.40
2019-05-16T19:33:48.882Z,42.50
2019-05-16T19:36:29.515Z,42.50
2019-05-16T19:39:10.388Z,42.60
2019-05-16T19:41:51.291Z,42.50
2019-05-16T19:44:32.159Z,42.50
2019-05-16T19:47:13.019Z,42.60
2019-05-16T19:49:42.090Z,42.70
2019-05-16T19:52:10.777Z,42.60
2019-05-16T19:54:39.539Z,42.70
2019-05-16T19:57:08.183Z,42.70
2019-05-16T19:59:37.363Z,42.80
2019-05-16T20:02:07.715Z,42.80
2019-05-16T20:04:36.812Z,42.80
2019-05-16T20:07:07.442Z,42.80
2019-05-16T20:09:36.551Z,42.80
2019-05-16T20:12:07.529Z,42.80
2019-05-16T20:15:07.558Z,42.80
2019-05-16T20:17:52.095Z,42.90
2019-05-16T20:20:18.325Z,42.80
2019-05-16T20:22:46.519Z,42.90
2019-05-16T20:25:16.423Z,42.90
2019-05-16T20:27:47.029Z,42.90
2019-05-16T20:30:17.103Z,42.80
2019-05-16T20:32:45.931Z,42.90
2019-05-16T20:35:14.628Z,42.90
2019-05-16T20:37:43.373Z,42.90
2019-05-16T20:40:12.715Z,43.00
2019-05-16T20:42:41.641Z,43.10
2019-05-16T20:45:10.937Z,43.20
2019-05-16T20:47:39.587Z,43.20
2019-05-16T20:50:08.471Z,43.10
2019-05-16T20:52:38.084Z,43.10
2019-05-16T20:55:26.822Z,43.30
2019-05-16T20:58:16.372Z,43.20
2019-05-16T21:00:49.410Z,43.20
2019-05-16T21:03:16.420Z,43.30
2019-05-16T21:05:48.088Z,43.30
2019-05-16T21:08:17.500Z,43.30
2019-05-16T21:10:58.867Z,43.40
2019-05-16T21:13:27.813Z,43.40
2019-05-16T21:15:57.707Z,43.40
2019-05-16T21:18:46.977Z,43.30
2019-05-16T21:21:36.769Z,43.50
2019-05-16T21:24:06.945Z,43.40
2019-05-16T21:26:36.782Z,43.40
2019-05-16T21:29:27.510Z,43.40
2019-05-16T21:31:56.571Z,43.40
2019-05-16T21:34:27.242Z,43.50
2019-05-16T21:37:00.900Z,43.50
2019-05-16T21:39:26.466Z,43.60
2019-05-16T21:41:56.423Z,43.50
2019-05-16T21:44:25.993Z,43.60
2019-05-16T21:46:56.503Z,43.40
2019-05-16T21:49:27.098Z,43.60
2019-05-16T21:51:57.078Z,43.70
2019-05-16T21:54:47.037Z,43.60
2019-05-16T21:57:37.501Z,43.60
2019-05-16T22:00:07.979Z,43.70
2019-05-16T22:02:37.216Z,43.70
2019-05-16T22:05:06.273Z,43.70
2019-05-16T22:07:56.681Z,43.80
2019-05-16T22:10:46.520Z,43.80
2019-05-16T22:13:14.765Z,44.20
2019-05-16T22:15:43.450Z,43.90
2019-05-16T22:18:12.799Z,44.00
2019-05-16T22:20:41.719Z,43.90
2019-05-16T22:23:10.639Z,43.90
2019-05-16T22:25:39.822Z,44.00
2019-05-16T22:28:08.507Z,44.00
2019-05-16T22:30:58.489Z,43.90
2019-05-16T22:33:27.121Z,44.00
2019-05-16T22:36:17.344Z,44.00
2019-05-16T22:39:06.811Z,43.80
2019-05-16T22:41:37.195Z,44.10
2019-05-16T22:44:08.599Z,44.10
2019-05-16T22:46:37.226Z,44.10
2019-05-16T22:49:07.612Z,44.10
2019-05-16T22:51:37.057Z,44.10
2019-05-16T22:54:07.613Z,44.10
2019-05-16T22:56:37.520Z,44.20
2019-05-16T22:59:07.245Z,44.20
2019-05-16T23:01:56.961Z,44.20
2019-05-16T23:04:27.313Z,44.10
2019-05-16T23:06:56.498Z,44.20
2019-05-16T23:09:27.070Z,44.10
2019-05-16T23:11:56.305Z,44.10
2019-05-16T23:14:26.363Z,44.10
2019-05-16T23:16:57.045Z,44.20
2019-05-16T23:19:47.452Z,44.90
2019-05-16T23:22:36.704Z,44.30
2019-05-16T23:25:06.572Z,44.30
2019-05-16T23:27:36.850Z,44.40
2019-05-16T23:30:07.427Z,44.20
2019-05-16T23:32:36.710Z,44.30
2019-05-16T23:35:06.862Z,44.40
2019-05-16T23:37:36.974Z,44.30
2019-05-16T23:40:06.327Z,44.40
2019-05-16T23:42:56.815Z,44.40
2019-05-16T23:45:27.398Z,44.40
2019-05-16T23:48:16.445Z,44.30
2019-05-16T23:50:47.505Z,44.30
2019-05-16T23:53:16.497Z,44.30
2019-05-16T23:55:47.104Z,44.30
2019-05-16T23:58:16.200Z,44.40
